Kerteminde, Denmark
Current Conditions -  °F | °C
As of 2:50 PM on Thursday 30 Oct 2014 (Local Time) from EKOD Reporting Station
Scattered Clouds Scattered Clouds  
Wind Chill: 10°   Ceiling: Unl
Heat Index: 10°   Visibility: 6mi
Dew Point:   Wind: 3mph
Humidity: 71%   Direction: NA
Pressure: 30.24"   Gusts: NA
Location:  55.45°N, 10.66°E
Report Text: EKOD 301350Z VRB03KT 9999 SCT040 SCT120 10/05 Q1024
Loading
Personal Weather Stations






























Interactive Weather Map
Tropical Storm Tracking
New forecast layout! Learn more

10-Day Weather Forecast

Advertisements
Track Severe Weather on mobile